createdAt,value
2018-06-17T00:00:47.220Z,7.63
2018-06-17T00:03:16.624Z,7.00
2018-06-17T00:05:46.689Z,7.63
2018-06-17T00:08:16.076Z,5.17
2018-06-17T00:10:45.591Z,7.20
2018-06-17T00:13:15.617Z,6.83
2018-06-17T00:15:45.030Z,6.73
2018-06-17T00:18:14.586Z,6.30
2018-06-17T00:20:44.347Z,7.50
2018-06-17T00:23:13.808Z,7.07
2018-06-17T00:25:43.242Z,8.37
2018-06-17T00:28:13.112Z,7.47
2018-06-17T00:30:42.528Z,7.40
2018-06-17T00:33:11.981Z,5.43
2018-06-17T00:35:42.272Z,6.70
2018-06-17T00:38:11.661Z,7.23
2018-06-17T00:40:41.371Z,5.37
2018-06-17T00:43:11.314Z,7.73
2018-06-17T00:45:40.815Z,6.83
2018-06-17T00:48:10.180Z,6.40
2018-06-17T00:50:39.931Z,9.07
2018-06-17T00:53:09.532Z,6.93
2018-06-17T00:55:39.057Z,9.67
2018-06-17T00:58:08.767Z,6.27
2018-06-17T01:00:38.394Z,6.67
2018-06-17T01:03:07.956Z,4.33
2018-06-17T01:05:37.620Z,6.00
2018-06-17T01:08:07.408Z,6.87
2018-06-17T01:10:36.963Z,6.97
2018-06-17T01:13:06.774Z,6.23
2018-06-17T01:15:36.556Z,6.83
2018-06-17T01:18:05.970Z,7.70
2018-06-17T01:20:35.733Z,7.97
2018-06-17T01:23:05.412Z,5.90
2018-06-17T01:25:34.706Z,6.83
2018-06-17T01:28:04.763Z,5.40
2018-06-17T01:30:34.611Z,5.67
2018-06-17T01:33:04.193Z,6.57
2018-06-17T01:35:33.858Z,6.80
2018-06-17T01:38:03.463Z,6.17
2018-06-17T01:40:33.077Z,6.30
2018-06-17T01:43:02.967Z,9.07
2018-06-17T01:45:32.916Z,5.70
2018-06-17T01:48:02.336Z,6.73
2018-06-17T01:50:31.886Z,8.20
2018-06-17T01:53:01.554Z,5.27
2018-06-17T01:55:31.195Z,8.40
2018-06-17T01:58:00.874Z,6.53
2018-06-17T02:00:30.848Z,6.17
2018-06-17T02:03:04.320Z,12.53
2018-06-17T02:05:39.515Z,10.47
2018-06-17T02:08:14.195Z,5.80
2018-06-17T02:10:49.023Z,4.43
2018-06-17T02:13:18.526Z,5.40
2018-06-17T02:15:48.070Z,7.93
2018-06-17T02:18:17.367Z,6.13
2018-06-17T02:20:47.999Z,7.90
2018-06-17T02:23:17.585Z,5.73
2018-06-17T02:25:46.920Z,4.73
2018-06-17T02:28:16.514Z,5.97
2018-06-17T02:30:46.283Z,6.23
2018-06-17T02:33:15.822Z,5.90
2018-06-17T02:35:45.502Z,5.23
2018-06-17T02:38:15.013Z,5.27
2018-06-17T02:40:44.654Z,6.50
2018-06-17T02:43:14.368Z,10.97
2018-06-17T02:45:49.042Z,7.30
2018-06-17T02:48:23.734Z,5.37
2018-06-17T02:50:58.182Z,5.40
2018-06-17T02:53:32.929Z,9.27
2018-06-17T02:56:02.706Z,4.83
2018-06-17T02:58:32.367Z,5.40
2018-06-17T03:01:01.784Z,7.13
2018-06-17T03:03:31.399Z,23.13
2018-06-17T03:06:01.164Z,5.27
2018-06-17T03:08:30.740Z,6.87
2018-06-17T03:11:00.520Z,6.63
2018-06-17T03:13:29.881Z,4.40
2018-06-17T03:15:59.357Z,6.00
2018-06-17T03:18:29.059Z,5.80
2018-06-17T03:20:58.243Z,5.70
2018-06-17T03:23:27.669Z,6.90
2018-06-17T03:26:02.630Z,6.10
2018-06-17T03:28:37.146Z,7.90
2018-06-17T03:31:11.830Z,4.10
2018-06-17T03:33:48.686Z,5.20
2018-06-17T03:36:18.465Z,5.13
2018-06-17T03:38:47.867Z,7.10
2018-06-17T03:41:17.644Z,3.97
2018-06-17T03:43:47.031Z,5.17
2018-06-17T03:46:16.457Z,4.93
2018-06-17T03:48:46.443Z,6.17
2018-06-17T03:51:15.743Z,4.23
2018-06-17T03:53:45.207Z,7.37
2018-06-17T03:56:15.528Z,5.33
2018-06-17T03:58:44.980Z,5.93
2018-06-17T04:01:14.750Z,5.20
2018-06-17T04:03:44.373Z,5.67
2018-06-17T04:06:13.691Z,3.43
2018-06-17T04:08:43.509Z,3.83
2018-06-17T04:11:13.238Z,5.83
2018-06-17T04:13:42.759Z,5.77
2018-06-17T04:16:12.496Z,4.30
2018-06-17T04:18:42.102Z,4.67
2018-06-17T04:21:11.523Z,4.50
2018-06-17T04:23:41.405Z,7.30
2018-06-17T04:26:10.932Z,4.00
2018-06-17T04:28:40.362Z,7.60
2018-06-17T04:31:10.034Z,5.83
2018-06-17T04:33:39.805Z,4.13
2018-06-17T04:36:09.470Z,5.27
2018-06-17T04:38:38.845Z,9.27
2018-06-17T04:41:08.465Z,5.57
2018-06-17T04:43:38.191Z,4.80
2018-06-17T04:46:07.590Z,3.37
2018-06-17T04:48:37.179Z,6.00
2018-06-17T04:51:06.382Z,6.27
2018-06-17T04:53:35.724Z,5.57
2018-06-17T04:56:05.379Z,10.90
2018-06-17T04:58:35.214Z,4.33
2018-06-17T05:01:04.648Z,6.80
2018-06-17T05:03:34.243Z,5.03
2018-06-17T05:06:03.857Z,5.17
2018-06-17T05:08:33.443Z,4.47
2018-06-17T05:11:03.055Z,7.50
2018-06-17T05:13:34.829Z,4.03
2018-06-17T05:16:06.641Z,4.13
2018-06-17T05:18:41.469Z,6.03
2018-06-17T05:21:17.734Z,4.37
2018-06-17T05:23:47.573Z,5.90
2018-06-17T05:26:17.498Z,3.43
2018-06-17T05:28:47.029Z,4.33
2018-06-17T05:31:16.877Z,4.30
2018-06-17T05:33:46.967Z,5.70
2018-06-17T05:36:16.805Z,7.20
2018-06-17T05:38:46.282Z,4.40
2018-06-17T05:41:16.371Z,5.20
2018-06-17T05:43:47.069Z,5.77
2018-06-17T05:46:16.659Z,3.43
2018-06-17T05:48:46.551Z,5.17
2018-06-17T05:51:16.162Z,6.30
2018-06-17T05:53:45.985Z,4.93
2018-06-17T05:56:16.098Z,4.17
2018-06-17T05:58:45.806Z,7.20
2018-06-17T06:01:15.406Z,6.83
2018-06-17T06:03:44.976Z,5.90
2018-06-17T06:06:14.316Z,5.03
2018-06-17T06:08:43.888Z,5.80
2018-06-17T06:11:13.456Z,7.97
2018-06-17T06:13:42.789Z,5.07
2018-06-17T06:16:12.276Z,4.63
2018-06-17T06:18:41.841Z,6.30
2018-06-17T06:21:11.174Z,9.23
2018-06-17T06:23:40.881Z,6.20
2018-06-17T06:26:10.386Z,8.03
2018-06-17T06:28:39.829Z,8.10
2018-06-17T06:31:09.484Z,8.07
2018-06-17T06:33:39.073Z,8.67
2018-06-17T06:36:08.646Z,6.40
2018-06-17T06:38:38.154Z,6.07
2018-06-17T06:41:07.725Z,12.13
2018-06-17T06:43:37.196Z,8.07
2018-06-17T06:46:06.858Z,9.87
2018-06-17T06:48:36.490Z,11.60
2018-06-17T06:51:05.835Z,10.10
2018-06-17T06:53:35.397Z,10.87
2018-06-17T06:56:05.442Z,12.13
2018-06-17T06:58:34.823Z,10.60
2018-06-17T07:01:05.133Z,7.17
2018-06-17T07:03:45.546Z,6.00
2018-06-17T07:06:25.964Z,13.03
2018-06-17T07:09:06.514Z,8.37
2018-06-17T07:11:36.457Z,7.90
2018-06-17T07:14:06.129Z,8.80
2018-06-17T07:16:46.429Z,9.77
2018-06-17T07:19:16.052Z,10.07
2018-06-17T07:21:45.530Z,10.93
2018-06-17T07:24:15.428Z,6.73
2018-06-17T07:26:56.873Z,11.00
2018-06-17T07:29:38.257Z,12.03
2018-06-17T07:32:08.049Z,8.13
2018-06-17T07:34:37.733Z,11.73
2018-06-17T07:37:07.229Z,10.63
2018-06-17T07:41:45.691Z,10.93
2018-06-17T07:44:15.233Z,10.83
2018-06-17T07:46:44.880Z,9.13
2018-06-17T07:49:35.396Z,10.70
2018-06-17T07:52:16.906Z,13.40
2018-06-17T07:54:46.808Z,13.10
2018-06-17T07:57:17.470Z,12.30
2018-06-17T07:59:47.238Z,12.93
2018-06-17T08:02:17.018Z,15.97
2018-06-17T08:04:46.429Z,15.77
2018-06-17T08:07:16.006Z,14.03
2018-06-17T08:09:45.841Z,18.40
2018-06-17T08:12:15.598Z,12.93
2018-06-17T08:14:45.417Z,12.40
2018-06-17T08:17:15.203Z,11.87
2018-06-17T08:19:44.837Z,12.40
2018-06-17T08:22:14.558Z,13.90
2018-06-17T08:24:44.313Z,20.60
2018-06-17T08:27:13.556Z,13.07
2018-06-17T08:29:43.231Z,16.53
2018-06-17T08:32:13.308Z,13.97
2018-06-17T08:34:42.623Z,12.00
2018-06-17T08:37:11.869Z,12.47
2018-06-17T08:39:41.431Z,9.33
2018-06-17T08:42:10.876Z,8.67
2018-06-17T08:44:40.232Z,10.50
2018-06-17T08:47:09.725Z,10.10
2018-06-17T08:49:39.115Z,7.87
2018-06-17T08:52:08.386Z,7.27
2018-06-17T08:54:37.714Z,8.23
2018-06-17T08:57:07.196Z,6.50
2018-06-17T08:59:36.443Z,7.27
2018-06-17T09:02:05.714Z,9.97
2018-06-17T09:04:35.192Z,7.40
2018-06-17T09:07:05.399Z,7.60
2018-06-17T09:09:34.732Z,7.07
2018-06-17T09:12:04.121Z,9.03
2018-06-17T09:14:34.275Z,12.00
2018-06-17T09:17:03.467Z,9.40
2018-06-17T09:19:32.669Z,8.17
2018-06-17T09:22:01.996Z,7.07
2018-06-17T09:24:31.743Z,7.10
2018-06-17T09:27:01.648Z,6.47
2018-06-17T09:29:31.075Z,9.43
2018-06-17T09:32:00.870Z,8.40
2018-06-17T09:34:30.266Z,4.60
2018-06-17T09:36:59.495Z,6.23
2018-06-17T09:39:28.952Z,9.03
2018-06-17T09:41:58.064Z,6.90
2018-06-17T09:44:27.486Z,7.47
2018-06-17T09:46:57.008Z,4.90
2018-06-17T09:49:26.188Z,6.90
2018-06-17T09:51:55.943Z,7.27
2018-06-17T09:54:26.210Z,5.23
2018-06-17T09:56:55.712Z,3.27
2018-06-17T09:59:25.243Z,5.13
2018-06-17T10:01:55.191Z,7.50
2018-06-17T10:04:24.936Z,5.10
2018-06-17T10:06:54.916Z,4.87
2018-06-17T10:09:24.907Z,3.30
2018-06-17T10:11:54.291Z,3.87
2018-06-17T10:14:23.859Z,8.10
2018-06-17T10:16:53.204Z,5.23
2018-06-17T10:19:22.709Z,3.37
2018-06-17T10:21:52.595Z,4.93
2018-06-17T10:24:22.426Z,4.40
2018-06-17T10:26:51.776Z,4.07
2018-06-17T10:29:21.281Z,5.07
2018-06-17T10:31:50.757Z,3.77
2018-06-17T10:34:20.141Z,4.93
2018-06-17T10:36:49.920Z,5.43
2018-06-17T10:39:19.744Z,4.70
2018-06-17T10:41:49.679Z,3.80
2018-06-17T10:44:19.344Z,5.20
2018-06-17T10:46:48.799Z,5.17
2018-06-17T10:49:18.466Z,6.73
2018-06-17T10:51:47.934Z,5.97
2018-06-17T10:54:17.433Z,5.30
2018-06-17T10:56:47.344Z,6.63
2018-06-17T10:59:16.831Z,5.10
2018-06-17T11:01:47.310Z,5.70
2018-06-17T11:04:16.736Z,7.83
2018-06-17T11:06:46.403Z,8.77
2018-06-17T11:09:16.717Z,8.03
2018-06-17T11:11:46.070Z,7.53
2018-06-17T11:14:15.369Z,12.83
2018-06-17T11:16:44.922Z,9.43
2018-06-17T11:19:14.180Z,7.70
2018-06-17T11:21:43.585Z,10.93
2018-06-17T11:24:13.462Z,10.50
2018-06-17T11:26:42.680Z,7.40
2018-06-17T11:29:11.910Z,11.70
2018-06-17T11:31:41.633Z,16.40
2018-06-17T11:34:11.055Z,11.53
2018-06-17T11:36:40.613Z,13.33
2018-06-17T11:39:10.509Z,12.27
2018-06-17T11:41:39.588Z,14.90
2018-06-17T11:44:09.041Z,13.50
2018-06-17T11:46:38.540Z,15.90
2018-06-17T11:49:08.119Z,20.97
2018-06-17T11:51:37.340Z,20.87
2018-06-17T11:54:06.816Z,23.37
2018-06-17T11:56:36.281Z,22.30
2018-06-17T11:59:05.706Z,21.83
2018-06-17T12:01:35.423Z,19.47
2018-06-17T12:04:04.811Z,16.57
2018-06-17T12:06:33.963Z,22.80
2018-06-17T12:09:03.659Z,20.30
2018-06-17T12:11:33.415Z,21.13
2018-06-17T12:14:02.719Z,16.33
2018-06-17T12:16:32.514Z,21.67
2018-06-17T12:19:02.884Z,21.67
2018-06-17T12:21:32.381Z,20.67
2018-06-17T12:24:02.327Z,17.23
2018-06-17T12:26:31.995Z,17.00
2018-06-17T12:29:01.458Z,17.13
2018-06-17T12:31:31.253Z,23.97
2018-06-17T12:34:01.197Z,16.93
2018-06-17T12:36:30.673Z,17.90
2018-06-17T12:39:00.165Z,24.87
2018-06-17T12:41:29.555Z,17.00
2018-06-17T12:43:59.016Z,18.60
2018-06-17T12:46:28.781Z,16.00
2018-06-17T12:48:58.427Z,20.80
2018-06-17T12:51:28.006Z,13.03
2018-06-17T12:53:57.773Z,10.80
2018-06-17T12:56:28.067Z,12.13
2018-06-17T12:58:57.529Z,9.17
2018-06-17T13:01:27.240Z,11.23
2018-06-17T13:03:57.011Z,9.27
2018-06-17T13:06:26.978Z,7.03
2018-06-17T13:08:56.947Z,6.17
2018-06-17T13:11:26.700Z,4.83
2018-06-17T13:13:56.388Z,4.77
2018-06-17T13:16:26.121Z,6.73
2018-06-17T13:18:56.092Z,7.07
2018-06-17T13:21:25.886Z,7.20
2018-06-17T13:23:55.394Z,4.30
2018-06-17T13:26:25.261Z,4.90
2018-06-17T13:28:55.008Z,4.63
2018-06-17T13:31:24.647Z,7.27
2018-06-17T13:33:54.166Z,6.70
2018-06-17T13:36:24.021Z,6.40
2018-06-17T13:38:53.486Z,4.90
2018-06-17T13:41:23.541Z,9.47
2018-06-17T13:43:53.242Z,5.90
2018-06-17T13:46:22.591Z,8.53
2018-06-17T13:48:52.438Z,8.53
2018-06-17T13:51:22.171Z,9.53
2018-06-17T13:53:51.724Z,8.33
2018-06-17T13:56:21.514Z,10.27
2018-06-17T13:58:51.225Z,10.70
2018-06-17T14:01:20.982Z,8.10
2018-06-17T14:03:50.762Z,9.57
2018-06-17T14:06:20.303Z,12.20
2018-06-17T14:08:49.803Z,7.83
2018-06-17T14:11:19.844Z,9.70
2018-06-17T14:13:49.650Z,7.50
2018-06-17T14:16:19.277Z,11.00
2018-06-17T14:18:48.847Z,7.83
2018-06-17T14:21:19.095Z,6.47
2018-06-17T14:23:48.820Z,6.73
2018-06-17T14:26:18.781Z,8.43
2018-06-17T14:28:48.695Z,5.90
2018-06-17T14:31:18.299Z,10.37
2018-06-17T14:33:48.049Z,7.43
2018-06-17T14:36:17.771Z,12.37
2018-06-17T14:38:47.278Z,6.50
2018-06-17T14:41:19.461Z,10.43
2018-06-17T14:43:54.045Z,6.60
2018-06-17T14:46:28.515Z,8.53
2018-06-17T14:49:03.252Z,8.73
2018-06-17T14:51:37.886Z,6.97
2018-06-17T14:54:08.249Z,5.57
2018-06-17T14:56:37.659Z,3.73
2018-06-17T14:59:07.190Z,6.43
2018-06-17T15:01:37.192Z,3.77
2018-06-17T15:04:07.064Z,4.70
2018-06-17T15:06:37.015Z,3.10
2018-06-17T15:09:09.488Z,4.87
2018-06-17T15:11:39.520Z,8.43
2018-06-17T15:14:09.659Z,3.33
2018-06-17T15:16:40.624Z,5.97
2018-06-17T15:19:10.317Z,6.50
2018-06-17T15:21:40.197Z,3.67
2018-06-17T15:24:10.427Z,6.47
2018-06-17T15:26:40.284Z,6.07
2018-06-17T15:29:10.583Z,6.40
2018-06-17T15:31:45.125Z,5.90
2018-06-17T15:34:19.778Z,5.63
2018-06-17T15:36:54.542Z,5.47
2018-06-17T15:39:29.598Z,7.27
2018-06-17T15:41:59.512Z,4.27
2018-06-17T15:44:29.417Z,6.20
2018-06-17T15:46:59.151Z,9.60
2018-06-17T15:49:28.958Z,6.03
2018-06-17T15:51:58.636Z,4.67
2018-06-17T15:54:28.134Z,6.10
2018-06-17T15:56:57.788Z,17.37
2018-06-17T15:59:27.558Z,10.47
2018-06-17T16:01:57.378Z,11.70
2018-06-17T16:04:27.174Z,11.63
2018-06-17T16:06:56.935Z,12.93
2018-06-17T16:09:27.046Z,21.63
2018-06-17T16:12:01.597Z,16.07
2018-06-17T16:14:36.045Z,21.83
2018-06-17T16:17:12.180Z,19.37
2018-06-17T16:19:46.996Z,15.47
2018-06-17T16:22:17.349Z,11.47
2018-06-17T16:24:47.102Z,15.87
2018-06-17T16:27:16.996Z,9.00
2018-06-17T16:29:47.260Z,5.83
2018-06-17T16:32:16.571Z,7.17
2018-06-17T16:34:46.733Z,6.17
2018-06-17T16:37:16.365Z,7.33
2018-06-17T16:39:45.756Z,3.73
2018-06-17T16:42:15.450Z,4.63
2018-06-17T16:44:45.101Z,6.40
2018-06-17T16:47:14.374Z,4.90
2018-06-17T16:49:44.324Z,6.63
2018-06-17T16:52:18.590Z,3.37
2018-06-17T16:54:53.163Z,5.80
2018-06-17T16:57:27.472Z,4.67
2018-06-17T17:00:01.897Z,8.33
2018-06-17T17:02:31.147Z,3.53
2018-06-17T17:05:01.044Z,5.17
2018-06-17T17:07:30.353Z,4.67
2018-06-17T17:09:59.843Z,2.57
2018-06-17T17:12:29.252Z,6.43
2018-06-17T17:14:58.646Z,6.63
2018-06-17T17:17:28.271Z,3.47
2018-06-17T17:19:58.107Z,3.87
2018-06-17T17:22:27.363Z,3.10
2018-06-17T17:24:56.473Z,4.07
2018-06-17T17:27:25.935Z,5.97
2018-06-17T17:29:55.288Z,3.03
2018-06-17T17:32:29.703Z,3.40
2018-06-17T17:35:04.200Z,3.10
2018-06-17T17:37:38.548Z,4.90
2018-06-17T17:40:13.136Z,4.57
2018-06-17T17:42:42.575Z,4.10
2018-06-17T17:45:16.775Z,8.60
2018-06-17T17:47:46.446Z,7.80
2018-06-17T17:50:16.245Z,4.73
2018-06-17T17:52:45.767Z,4.57
2018-06-17T17:55:15.687Z,9.97
2018-06-17T17:57:45.363Z,6.07
2018-06-17T18:00:14.965Z,3.70
2018-06-17T18:02:44.867Z,5.67
2018-06-17T18:05:14.659Z,22.67
2018-06-17T18:07:44.257Z,4.43
2018-06-17T18:10:14.192Z,8.17
2018-06-17T18:12:43.760Z,3.53
2018-06-17T18:15:12.951Z,4.83
2018-06-17T18:17:42.791Z,5.87
2018-06-17T18:20:12.828Z,7.00
2018-06-17T18:22:42.398Z,3.93
2018-06-17T18:25:16.853Z,5.03
2018-06-17T18:27:51.706Z,8.23
2018-06-17T18:30:25.984Z,5.57
2018-06-17T18:33:00.607Z,6.43
2018-06-17T18:35:35.846Z,7.07
2018-06-17T18:38:05.591Z,4.53
2018-06-17T18:40:35.561Z,5.10
2018-06-17T18:43:05.102Z,3.60
2018-06-17T18:45:34.855Z,7.63
2018-06-17T18:48:04.611Z,8.10
2018-06-17T18:50:34.440Z,3.97
2018-06-17T18:53:04.264Z,8.40
2018-06-17T18:55:33.778Z,7.50
2018-06-17T18:58:03.653Z,6.33
2018-06-17T19:00:33.234Z,6.60
2018-06-17T19:03:02.823Z,7.13
2018-06-17T19:05:33.152Z,6.77
2018-06-17T19:08:02.225Z,4.73
2018-06-17T19:10:37.227Z,6.63
2018-06-17T19:13:12.032Z,4.83
2018-06-17T19:15:46.544Z,5.03
2018-06-17T19:18:16.603Z,5.43
2018-06-17T19:20:46.469Z,4.73
2018-06-17T19:23:16.130Z,5.23
2018-06-17T19:25:45.718Z,7.40
2018-06-17T19:28:15.486Z,8.43
2018-06-17T19:30:45.048Z,6.73
2018-06-17T19:33:14.885Z,7.00
2018-06-17T19:35:44.870Z,6.17
2018-06-17T19:38:14.455Z,5.70
2018-06-17T19:40:44.333Z,7.30
2018-06-17T19:43:14.406Z,7.17
2018-06-17T19:45:43.990Z,5.30
2018-06-17T19:48:13.860Z,10.83
2018-06-17T19:51:52.187Z,9.27
2018-06-17T19:54:26.873Z,8.20
2018-06-17T19:57:01.543Z,8.03
2018-06-17T19:59:36.305Z,8.27
2018-06-17T20:02:06.181Z,9.73
2018-06-17T20:04:36.074Z,8.40
2018-06-17T20:07:05.570Z,9.37
2018-06-17T20:09:35.148Z,11.00
2018-06-17T20:12:04.886Z,7.30
2018-06-17T20:14:34.324Z,8.27
2018-06-17T20:17:04.046Z,9.77
2018-06-17T20:19:34.142Z,13.03
2018-06-17T20:22:03.736Z,12.10
2018-06-17T20:24:33.874Z,11.13
2018-06-17T20:27:03.866Z,6.97
2018-06-17T20:29:33.671Z,7.10
2018-06-17T20:34:44.725Z,10.40
2018-06-17T20:37:19.393Z,9.70
2018-06-17T20:39:57.392Z,4.70
2018-06-17T20:42:32.961Z,7.43
2018-06-17T20:45:02.900Z,7.00
2018-06-17T20:47:32.891Z,5.13
2018-06-17T20:50:02.694Z,4.83
2018-06-17T20:52:33.039Z,8.13
2018-06-17T20:55:02.817Z,7.10
2018-06-17T20:57:32.884Z,7.40
2018-06-17T21:00:02.494Z,5.07
2018-06-17T21:02:32.223Z,5.53
2018-06-17T21:05:02.270Z,7.83
2018-06-17T21:07:32.748Z,5.93
2018-06-17T21:10:02.300Z,3.37
2018-06-17T21:12:31.873Z,2.77
2018-06-17T21:15:06.227Z,6.53
2018-06-17T21:17:35.938Z,3.80
2018-06-17T21:21:10.266Z,5.53
2018-06-17T21:23:45.032Z,5.77
2018-06-17T21:26:19.722Z,4.43
2018-06-17T21:28:49.946Z,5.17
2018-06-17T21:31:19.450Z,5.87
2018-06-17T21:33:48.978Z,5.07
2018-06-17T21:36:18.918Z,4.73
2018-06-17T21:38:48.833Z,5.27
2018-06-17T21:41:18.307Z,6.60
2018-06-17T21:43:48.238Z,6.67
2018-06-17T21:46:17.938Z,5.03
2018-06-17T21:48:47.384Z,7.13
2018-06-17T21:51:17.056Z,9.33
2018-06-17T21:53:47.069Z,10.83
2018-06-17T21:56:16.512Z,4.70
2018-06-17T21:58:48.498Z,6.27
2018-06-17T22:01:19.339Z,5.53
2018-06-17T22:03:49.159Z,7.67
2018-06-17T22:06:18.983Z,6.40
2018-06-17T22:08:53.670Z,5.73
2018-06-17T22:11:28.305Z,5.03
2018-06-17T22:14:02.941Z,6.60
2018-06-17T22:16:37.720Z,6.77
2018-06-17T22:19:07.762Z,5.87
2018-06-17T22:21:37.755Z,8.40
2018-06-17T22:24:07.432Z,5.20
2018-06-17T22:26:37.139Z,4.23
2018-06-17T22:29:06.635Z,6.67
2018-06-17T22:31:36.496Z,8.77
2018-06-17T22:34:06.405Z,5.00
2018-06-17T22:36:35.942Z,4.83
2018-06-17T22:39:07.889Z,4.70
2018-06-17T22:41:37.717Z,6.50
2018-06-17T22:44:07.295Z,5.60
2018-06-17T22:46:36.917Z,5.00
2018-06-17T22:49:06.529Z,6.73
2018-06-17T22:51:36.356Z,4.97
2018-06-17T22:54:16.920Z,3.50
2018-06-17T22:56:51.559Z,7.13
2018-06-17T22:59:25.744Z,5.33
2018-06-17T23:02:01.097Z,5.43
2018-06-17T23:04:35.518Z,6.93
2018-06-17T23:07:10.446Z,5.23
2018-06-17T23:09:41.915Z,8.77
2018-06-17T23:12:11.943Z,6.87
2018-06-17T23:14:41.854Z,6.63
2018-06-17T23:17:12.320Z,6.53
2018-06-17T23:19:41.913Z,5.97
2018-06-17T23:22:11.827Z,4.63
2018-06-17T23:24:41.610Z,6.57
2018-06-17T23:27:10.947Z,4.03
2018-06-17T23:29:40.628Z,4.93
2018-06-17T23:32:10.422Z,5.43
2018-06-17T23:34:39.782Z,3.67
2018-06-17T23:37:09.362Z,3.23
2018-06-17T23:39:39.186Z,4.77
2018-06-17T23:42:08.711Z,6.93
2018-06-17T23:44:38.448Z,3.90
2018-06-17T23:47:13.099Z,7.30
2018-06-17T23:49:47.625Z,5.40
2018-06-17T23:52:22.535Z,6.70
2018-06-17T23:54:57.362Z,5.57
2018-06-17T23:57:27.064Z,5.67
2018-06-17T23:59:56.753Z,3.53
